Time;durP1;ratioP1;P1;durP2;ratioP2;P2;SDS_P1;SDS_P2;PMS_P1;PMS_P2;Temp;Humidity;BMP_temperature;BMP_pressure;BME280_temperature;BME280_humidity;BME280_pressure;Samples;Min_cycle;Max_cycle;Signal;HPM_P1;HPM_P2
2023/04/04 00:01:32;;;;;;;;;;;3.90;65.50;;;;;;8383109;28;19976;-73
2023/04/04 00:05:34;;;;;;;;;;;3.80;65.30;;;;;;8357299;28;19970;-72
2023/04/04 00:09:36;;;;;;;;;;;3.80;65.00;;;;;;8397101;28;20331;-72
2023/04/04 00:13:38;;;;;;;;;;;3.80;66.70;;;;;;8386170;28;19975;-73
2023/04/04 00:17:40;;;;;;;;;;;3.80;68.30;;;;;;8396129;28;20015;-72
2023/04/04 00:21:42;;;;;;;;;;;3.70;66.00;;;;;;8380403;28;19931;-72
2023/04/04 00:25:48;;;;;;;;;;;3.70;65.00;;;;;;8389427;28;20360;-72
2023/04/04 00:29:50;;;;;;;;;;;3.70;67.70;;;;;;8398856;28;19935;-73
2023/04/04 00:33:51;;;;;;;;;;;3.70;71.40;;;;;;8394184;28;19924;-72
2023/04/04 00:37:53;;;;;;;;;;;3.70;72.30;;;;;;8395216;28;19964;-72
2023/04/04 00:41:55;;;;;;;;;;;3.70;72.10;;;;;;8395529;28;19925;-73
2023/04/04 00:45:57;;;;;;;;;;;3.70;71.40;;;;;;8369541;28;19933;-73
2023/04/04 00:49:59;;;;;;;;;;;3.70;71.30;;;;;;8411467;28;19933;-72
2023/04/04 00:54:01;;;;;;;;;;;3.70;70.30;;;;;;8370496;28;19925;-73
2023/04/04 00:58:03;;;;;;;;;;;3.70;70.10;;;;;;8370592;28;19929;-72
2023/04/04 01:02:05;;;;;;;;;;;3.60;72.10;;;;;;8345356;28;19971;-72
2023/04/04 01:06:07;;;;;;;;;;;3.50;72.40;;;;;;8341593;28;19925;-72
2023/04/04 01:10:09;;;;;;;;;;;3.40;71.00;;;;;;8364267;28;19925;-73
2023/04/04 01:14:11;;;;;;;;;;;3.40;70.00;;;;;;8357648;28;19924;-72
2023/04/04 01:18:14;;;;;;;;;;;3.30;73.10;;;;;;8368172;28;19935;-73
2023/04/04 01:22:17;;;;;;;;;;;3.30;73.70;;;;;;8374052;28;20019;-72
2023/04/04 01:26:20;;;;;;;;;;;3.20;72.00;;;;;;8360856;28;19928;-72
2023/04/04 01:30:22;;;;;;;;;;;3.20;72.40;;;;;;8366868;28;20436;-72
2023/04/04 01:34:30;;;;;;;;;;;3.10;72.10;;;;;;8348241;28;19924;-72
2023/04/04 01:38:37;;;;;;;;;;;3.00;73.30;;;;;;8341329;28;19925;-72
2023/04/04 01:42:40;;;;;;;;;;;3.00;72.10;;;;;;8342911;28;20373;-72
2023/04/04 01:46:41;;;;;;;;;;;2.90;73.30;;;;;;8356281;28;19925;-73
2023/04/04 01:50:43;;;;;;;;;;;2.80;70.70;;;;;;8359480;28;19983;-72
2023/04/04 01:54:44;;;;;;;;;;;2.70;68.50;;;;;;8362765;28;19964;-72
2023/04/04 01:58:46;;;;;;;;;;;2.60;69.50;;;;;;8377066;28;19932;-73
2023/04/04 02:02:48;;;;;;;;;;;2.60;71.70;;;;;;8381045;28;19931;-73
2023/04/04 02:06:51;;;;;;;;;;;2.50;70.50;;;;;;8384695;28;19950;-72
2023/04/04 02:10:55;;;;;;;;;;;2.50;71.20;;;;;;8390451;28;19928;-73
2023/04/04 02:14:57;;;;;;;;;;;2.40;70.30;;;;;;8391618;28;20401;-73
2023/04/04 02:18:59;;;;;;;;;;;2.40;71.70;;;;;;8369401;28;19928;-73
2023/04/04 02:23:01;;;;;;;;;;;2.30;71.90;;;;;;8374434;28;19931;-73
2023/04/04 02:27:03;;;;;;;;;;;2.30;72.50;;;;;;8380931;28;19940;-73
2023/04/04 02:31:05;;;;;;;;;;;2.20;72.30;;;;;;8375098;28;19951;-73
2023/04/04 02:35:07;;;;;;;;;;;2.20;72.80;;;;;;8380474;28;19960;-73
2023/04/04 02:39:08;;;;;;;;;;;2.10;70.60;;;;;;8385516;28;20377;-72
2023/04/04 02:43:10;;;;;;;;;;;2.00;73.20;;;;;;8392019;28;19930;-73
2023/04/04 02:47:12;;;;;;;;;;;2.00;72.90;;;;;;8394877;28;19964;-73
2023/04/04 02:51:13;;;;;;;;;;;1.90;72.80;;;;;;8378916;28;20380;-72
2023/04/04 02:55:15;;;;;;;;;;;1.90;71.20;;;;;;8375378;28;19931;-72
2023/04/04 02:59:17;;;;;;;;;;;1.80;71.40;;;;;;8366886;28;20384;-72
2023/04/04 03:03:18;;;;;;;;;;;1.90;72.30;;;;;;8378757;28;19932;-72
2023/04/04 03:07:21;;;;;;;;;;;1.90;72.30;;;;;;8374488;28;19928;-72
2023/04/04 03:11:23;;;;;;;;;;;1.80;72.50;;;;;;8391439;28;19951;-73
2023/04/04 03:15:29;;;;;;;;;;;1.80;71.70;;;;;;8382917;28;19925;-72
2023/04/04 03:19:31;;;;;;;;;;;1.80;71.90;;;;;;8398719;28;19935;-73
2023/04/04 03:23:32;;;;;;;;;;;1.90;72.50;;;;;;8363646;28;19928;-73
2023/04/04 03:27:34;;;;;;;;;;;1.80;73.30;;;;;;8397436;28;19982;-72
2023/04/04 03:31:35;;;;;;;;;;;1.70;73.70;;;;;;8398879;28;19971;-73
2023/04/04 03:35:38;;;;;;;;;;;1.70;71.90;;;;;;8376237;28;19944;-73
2023/04/04 03:39:40;;;;;;;;;;;1.60;71.00;;;;;;8387801;28;19924;-72
2023/04/04 03:43:41;;;;;;;;;;;1.50;69.70;;;;;;8389599;28;20379;-73
2023/04/04 03:47:43;;;;;;;;;;;1.50;70.10;;;;;;8378879;28;20015;-72
2023/04/04 03:56:55;;;;;;;;;;;1.50;70.60;;;;;;8381600;28;19978;-75
2023/04/04 04:00:57;;;;;;;;;;;1.40;70.60;;;;;;8402336;28;19934;-75
2023/04/04 04:04:58;;;;;;;;;;;1.40;70.50;;;;;;8380532;28;20011;-75
2023/04/04 04:09:00;;;;;;;;;;;1.40;71.30;;;;;;8391971;28;19930;-75
2023/04/04 04:13:02;;;;;;;;;;;1.30;71.30;;;;;;8378071;28;19971;-75
2023/04/04 04:17:04;;;;;;;;;;;1.30;71.60;;;;;;8376104;28;19928;-75
2023/04/04 04:21:06;;;;;;;;;;;1.30;71.80;;;;;;8397731;28;19931;-75
2023/04/04 04:25:07;;;;;;;;;;;1.20;71.00;;;;;;8384215;28;19924;-75
2023/04/04 04:29:09;;;;;;;;;;;1.20;69.10;;;;;;8391881;28;19934;-75
2023/04/04 04:33:11;;;;;;;;;;;1.10;70.20;;;;;;8368707;28;19956;-75
2023/04/04 04:47:20;;;;;;;;;;;0.90;71.20;;;;;;8375152;28;19919;-75
2023/04/04 04:51:22;;;;;;;;;;;0.90;71.30;;;;;;8383896;28;20405;-75
2023/04/04 04:55:24;;;;;;;;;;;0.80;73.30;;;;;;8375227;28;19936;-75
2023/04/04 04:59:25;;;;;;;;;;;0.80;70.80;;;;;;8386145;28;19947;-74
2023/04/04 05:03:27;;;;;;;;;;;0.70;69.40;;;;;;8400564;28;19943;-75
2023/04/04 05:07:29;;;;;;;;;;;0.70;69.00;;;;;;8375712;28;19928;-75
2023/04/04 05:11:31;;;;;;;;;;;0.70;69.90;;;;;;8376285;28;19929;-75
2023/04/04 05:15:32;;;;;;;;;;;0.70;70.50;;;;;;8356671;28;19975;-75
2023/04/04 05:19:34;;;;;;;;;;;0.70;71.70;;;;;;8376591;28;20327;-75
2023/04/04 05:23:36;;;;;;;;;;;0.70;70.40;;;;;;8378079;28;19925;-75
2023/04/04 05:27:38;;;;;;;;;;;0.70;71.00;;;;;;8379698;28;19928;-75
2023/04/04 05:31:40;;;;;;;;;;;0.70;71.90;;;;;;8387410;28;19964;-75
2023/04/04 05:35:41;;;;;;;;;;;0.70;71.40;;;;;;8380895;28;19947;-75
2023/04/04 05:39:43;;;;;;;;;;;0.70;71.40;;;;;;8400389;28;19983;-72
2023/04/04 05:43:45;;;;;;;;;;;0.70;71.20;;;;;;8394931;28;19933;-73
2023/04/04 05:47:46;;;;;;;;;;;0.70;70.70;;;;;;8380596;28;19939;-72
2023/04/04 05:51:48;;;;;;;;;;;0.80;73.00;;;;;;8389037;28;19970;-72
2023/04/04 05:55:51;;;;;;;;;;;0.80;71.30;;;;;;8355370;28;19935;-72
2023/04/04 05:59:53;;;;;;;;;;;0.90;71.40;;;;;;8396633;28;20475;-72
2023/04/04 06:03:55;;;;;;;;;;;1.00;71.90;;;;;;8384750;28;19924;-72
2023/04/04 06:07:56;;;;;;;;;;;1.20;71.80;;;;;;8378451;28;20387;-73
2023/04/04 06:11:58;;;;;;;;;;;1.30;70.90;;;;;;8385269;28;20272;-75
2023/04/04 06:16:00;;;;;;;;;;;1.40;72.30;;;;;;8373994;28;19983;-75
2023/04/04 06:20:03;;;;;;;;;;;1.40;71.40;;;;;;8388029;28;20276;-75
2023/04/04 06:24:05;;;;;;;;;;;1.50;72.10;;;;;;8376760;28;19960;-75
2023/04/04 06:28:08;;;;;;;;;;;1.60;73.10;;;;;;8368052;28;20015;-75
2023/04/04 06:32:09;;;;;;;;;;;1.70;73.70;;;;;;8378457;28;19932;-75
2023/04/04 06:36:11;;;;;;;;;;;1.70;72.80;;;;;;8403459;28;19924;-75
2023/04/04 06:40:13;;;;;;;;;;;1.90;76.60;;;;;;8380074;28;19940;-75
2023/04/04 06:44:15;;;;;;;;;;;2.00;76.10;;;;;;8384878;28;19928;-75
2023/04/04 06:48:16;;;;;;;;;;;2.20;75.50;;;;;;8381314;28;19940;-75
2023/04/04 06:52:18;;;;;;;;;;;2.50;75.40;;;;;;8388024;28;20387;-75
2023/04/04 06:56:20;;;;;;;;;;;2.70;75.90;;;;;;8364455;28;19971;-75
2023/04/04 07:00:22;;;;;;;;;;;2.90;75.10;;;;;;8377276;28;19932;-75
2023/04/04 07:04:24;;;;;;;;;;;3.10;75.30;;;;;;8388692;28;19925;-75
2023/04/04 07:08:27;;;;;;;;;;;3.30;76.10;;;;;;8388145;28;19931;-75
2023/04/04 07:12:34;;;;;;;;;;;3.50;75.60;;;;;;8381980;28;19943;-75
2023/04/04 07:16:36;;;;;;;;;;;3.80;76.50;;;;;;8391261;28;19935;-73
2023/04/04 07:20:38;;;;;;;;;;;4.10;80.20;;;;;;8377087;28;19925;-73
2023/04/04 07:24:41;;;;;;;;;;;4.30;77.20;;;;;;8400455;28;19936;-73
2023/04/04 07:28:42;;;;;;;;;;;4.50;76.60;;;;;;8372929;28;20061;-73
2023/04/04 07:32:44;;;;;;;;;;;4.80;77.40;;;;;;8389482;28;19925;-73
2023/04/04 07:36:46;;;;;;;;;;;5.00;76.40;;;;;;8388634;28;20352;-73
2023/04/04 07:40:49;;;;;;;;;;;5.20;77.20;;;;;;8379911;28;19947;-72
2023/04/04 07:44:51;;;;;;;;;;;5.40;77.60;;;;;;8385445;28;19934;-73
2023/04/04 07:48:52;;;;;;;;;;;5.50;77.60;;;;;;8379531;28;20027;-72
2023/04/04 07:52:54;;;;;;;;;;;5.70;76.40;;;;;;8402838;28;20365;-72
2023/04/04 07:56:56;;;;;;;;;;;5.80;76.50;;;;;;8370510;28;20442;-73
2023/04/04 08:00:58;;;;;;;;;;;5.90;76.20;;;;;;8398480;28;20419;-73
2023/04/04 08:05:00;;;;;;;;;;;6.00;75.30;;;;;;8383905;28;19924;-73
2023/04/04 08:09:02;;;;;;;;;;;6.10;75.70;;;;;;8371744;28;20360;-73
2023/04/04 08:13:04;;;;;;;;;;;6.20;75.30;;;;;;8385208;28;19955;-73
2023/04/04 08:17:07;;;;;;;;;;;6.30;75.30;;;;;;8382812;28;19956;-73
2023/04/04 08:21:08;;;;;;;;;;;6.50;75.60;;;;;;8406029;28;20328;-73
2023/04/04 08:25:10;;;;;;;;;;;6.70;75.30;;;;;;8383745;28;19928;-73
2023/04/04 08:29:12;;;;;;;;;;;6.80;74.90;;;;;;8393247;28;20339;-72
2023/04/04 08:33:13;;;;;;;;;;;7.00;74.20;;;;;;8382400;28;19968;-73
2023/04/04 08:37:15;;;;;;;;;;;7.10;74.90;;;;;;8377827;28;20296;-73
2023/04/04 08:41:18;;;;;;;;;;;7.30;74.60;;;;;;8384654;28;19937;-73
2023/04/04 08:45:20;;;;;;;;;;;7.60;75.30;;;;;;8395218;28;19929;-73
2023/04/04 08:49:22;;;;;;;;;;;7.80;73.80;;;;;;8381538;28;19947;-73
2023/04/04 08:53:25;;;;;;;;;;;8.00;74.50;;;;;;8410618;28;19933;-73
2023/04/04 08:57:27;;;;;;;;;;;8.20;74.70;;;;;;8396700;28;19925;-73
2023/04/04 09:01:29;;;;;;;;;;;8.50;75.00;;;;;;8396933;28;19943;-73
2023/04/04 09:05:31;;;;;;;;;;;8.60;73.50;;;;;;8395044;28;19925;-73
2023/04/04 09:09:33;;;;;;;;;;;8.80;72.30;;;;;;8399989;28;20007;-73
2023/04/04 09:13:35;;;;;;;;;;;8.90;73.60;;;;;;8403381;28;20006;-73
2023/04/04 09:17:38;;;;;;;;;;;9.20;73.50;;;;;;8379712;28;19931;-73
2023/04/04 09:21:44;;;;;;;;;;;9.40;75.70;;;;;;8391648;28;19932;-73
2023/04/04 09:25:47;;;;;;;;;;;9.50;72.00;;;;;;8406757;28;19930;-73
2023/04/04 09:30:03;;;;;;;;;;;9.50;73.50;;;;;;8378461;28;20311;-73
2023/04/04 09:34:06;;;;;;;;;;;9.50;74.10;;;;;;8366263;28;19929;-73
2023/04/04 09:38:08;;;;;;;;;;;9.70;73.60;;;;;;8407682;28;20327;-73
2023/04/04 09:42:10;;;;;;;;;;;9.80;73.30;;;;;;8377095;28;19931;-73
2023/04/04 09:46:11;;;;;;;;;;;9.90;73.80;;;;;;8377151;28;19924;-73
2023/04/04 09:50:20;;;;;;;;;;;10.00;72.80;;;;;;8381040;28;20019;-73
2023/04/04 09:54:22;;;;;;;;;;;10.10;72.70;;;;;;8377966;28;19931;-73
2023/04/04 09:58:35;;;;;;;;;;;10.10;73.20;;;;;;8388566;28;19970;-73
2023/04/04 10:02:38;;;;;;;;;;;10.30;73.20;;;;;;8387697;28;19970;-73
2023/04/04 10:06:42;;;;;;;;;;;10.50;73.80;;;;;;8391572;28;20372;-73
2023/04/04 10:10:47;;;;;;;;;;;10.70;74.50;;;;;;8403502;28;19947;-73
2023/04/04 10:15:00;;;;;;;;;;;11.00;73.40;;;;;;8388809;28;20428;-73
2023/04/04 10:19:02;;;;;;;;;;;11.10;74.60;;;;;;8400107;28;19928;-73
2023/04/04 10:23:05;;;;;;;;;;;11.40;76.00;;;;;;8381262;28;19929;-73
2023/04/04 10:27:06;;;;;;;;;;;11.70;74.80;;;;;;8386260;28;19931;-73
2023/04/04 10:31:14;;;;;;;;;;;11.80;78.10;;;;;;8391794;28;20015;-73
2023/04/04 10:35:16;;;;;;;;;;;11.80;77.30;;;;;;8395158;28;19954;-73
2023/04/04 10:39:38;;;;;;;;;;;11.90;79.50;;;;;;8381522;28;20379;-73
2023/04/04 10:43:40;;;;;;;;;;;12.10;81.80;;;;;;8385522;28;20055;-73
2023/04/04 10:47:43;;;;;;;;;;;12.20;85.00;;;;;;8378065;28;19932;-73
2023/04/04 10:51:45;;;;;;;;;;;12.40;85.40;;;;;;8397655;28;19932;-73
2023/04/04 10:55:57;;;;;;;;;;;12.50;83.40;;;;;;8397303;28;20536;-73
2023/04/04 11:00:00;;;;;;;;;;;12.60;85.40;;;;;;8387926;28;20375;-73
2023/04/04 11:04:18;;;;;;;;;;;12.90;86.80;;;;;;8409443;28;19991;-73
2023/04/04 11:08:23;;;;;;;;;;;13.20;84.10;;;;;;8365688;28;19928;-73
2023/04/04 11:12:30;;;;;;;;;;;13.50;81.00;;;;;;8383971;28;19928;-73
2023/04/04 11:16:52;;;;;;;;;;;14.20;86.20;;;;;;8391019;28;21619;-73
2023/04/04 11:20:54;;;;;;;;;;;14.70;92.00;;;;;;8374916;28;19931;-73
2023/04/04 11:24:59;;;;;;;;;;;15.40;87.80;;;;;;8379602;28;19947;-73
2023/04/04 11:29:02;;;;;;;;;;;16.00;93.40;;;;;;8362763;28;20296;-73
2023/04/04 11:33:05;;;;;;;;;;;16.50;97.70;;;;;;8405330;28;19932;-74
2023/04/04 11:37:16;;;;;;;;;;;16.80;99.90;;;;;;8368271;28;19968;-73
2023/04/04 11:41:18;;;;;;;;;;;17.00;97.50;;;;;;8362878;28;19940;-73
2023/04/04 11:45:24;;;;;;;;;;;17.20;90.50;;;;;;8361250;28;19928;-73
2023/04/04 11:49:28;;;;;;;;;;;17.20;92.40;;;;;;8358665;28;19933;-73
2023/04/04 11:53:30;;;;;;;;;;;17.40;90.60;;;;;;8359579;28;19936;-73
2023/04/04 11:57:32;;;;;;;;;;;17.90;99.00;;;;;;8370150;28;20360;-73
2023/04/04 12:01:34;;;;;;;;;;;18.40;95.30;;;;;;8359426;28;19932;-74
2023/04/04 12:05:37;;;;;;;;;;;18.80;95.70;;;;;;8374547;28;19947;-74
2023/04/04 12:09:39;;;;;;;;;;;19.30;99.90;;;;;;8361320;28;19932;-74
2023/04/04 12:13:43;;;;;;;;;;;19.40;92.50;;;;;;8368245;28;19925;-74
2023/04/04 12:17:45;;;;;;;;;;;19.40;99.90;;;;;;8364694;28;19978;-74
2023/04/04 12:21:47;;;;;;;;;;;19.20;99.90;;;;;;8362828;28;19929;-74
2023/04/04 12:25:53;;;;;;;;;;;19.10;97.20;;;;;;8361076;28;19924;-74
2023/04/04 12:29:55;;;;;;;;;;;19.10;99.90;;;;;;8366419;28;20020;-73
2023/04/04 12:33:58;;;;;;;;;;;19.10;99.90;;;;;;8365849;28;19932;-73
2023/04/04 12:38:06;;;;;;;;;;;18.20;98.20;;;;;;8363800;28;19924;-73
2023/04/04 12:42:10;;;;;;;;;;;17.80;94.70;;;;;;8369388;28;20368;-73
2023/04/04 12:46:12;;;;;;;;;;;17.40;90.80;;;;;;8364335;28;19931;-74
2023/04/04 12:50:19;;;;;;;;;;;17.00;89.40;;;;;;8368105;28;19925;-73
2023/04/04 12:54:27;;;;;;;;;;;16.60;88.20;;;;;;8361395;28;19931;-73
2023/04/04 12:58:30;;;;;;;;;;;16.40;87.90;;;;;;8363119;28;19928;-73
2023/04/04 13:02:33;;;;;;;;;;;16.40;82.10;;;;;;8348010;28;19931;-73
2023/04/04 13:06:35;;;;;;;;;;;16.20;73.50;;;;;;8359491;28;20217;-73
2023/04/04 13:11:10;;;;;;;;;;;16.10;75.00;;;;;;8357264;28;19968;-73
2023/04/04 13:15:12;;;;;;;;;;;16.20;78.30;;;;;;8353243;28;19930;-73
2023/04/04 13:19:14;;;;;;;;;;;16.10;78.40;;;;;;8363827;28;19931;-73
2023/04/04 13:23:15;;;;;;;;;;;16.00;74.60;;;;;;8370833;28;19941;-73
2023/04/04 13:27:17;;;;;;;;;;;15.80;75.60;;;;;;8373245;28;19932;-73
2023/04/04 13:31:19;;;;;;;;;;;15.90;72.30;;;;;;8372691;28;20379;-73
2023/04/04 13:35:21;;;;;;;;;;;16.20;79.00;;;;;;8374033;28;19931;-73
2023/04/04 13:39:23;;;;;;;;;;;16.50;74.90;;;;;;8372958;28;19951;-73
2023/04/04 13:43:26;;;;;;;;;;;16.60;73.10;;;;;;8369244;28;19924;-74
2023/04/04 13:47:27;;;;;;;;;;;16.80;71.40;;;;;;8364651;28;19939;-73
2023/04/04 13:51:30;;;;;;;;;;;16.90;74.50;;;;;;8371918;28;19935;-74
2023/04/04 13:55:31;;;;;;;;;;;16.90;67.60;;;;;;8370823;28;19928;-73
2023/04/04 13:59:33;;;;;;;;;;;16.90;72.60;;;;;;8373187;28;19974;-73
2023/04/04 14:03:35;;;;;;;;;;;17.10;67.70;;;;;;8372394;28;20742;-73
2023/04/04 14:07:37;;;;;;;;;;;17.10;68.80;;;;;;8374987;28;20318;-73
2023/04/04 14:11:39;;;;;;;;;;;17.20;66.10;;;;;;8370795;28;19924;-74
2023/04/04 14:15:40;;;;;;;;;;;17.40;74.20;;;;;;8372918;28;19968;-74
2023/04/04 14:19:42;;;;;;;;;;;17.70;75.50;;;;;;8373256;28;19932;-74
2023/04/04 14:23:44;;;;;;;;;;;18.10;73.00;;;;;;8368497;28;20430;-73
2023/04/04 14:27:46;;;;;;;;;;;18.60;75.70;;;;;;8365694;28;19924;-74
2023/04/04 14:31:47;;;;;;;;;;;19.00;68.00;;;;;;8358147;28;20031;-73
2023/04/04 14:35:49;;;;;;;;;;;19.40;85.80;;;;;;8362868;28;19928;-74
2023/04/04 14:39:51;;;;;;;;;;;20.00;84.40;;;;;;8360202;28;19925;-74
2023/04/04 14:43:53;;;;;;;;;;;20.50;81.70;;;;;;8364469;28;19998;-74
2023/04/04 14:47:55;;;;;;;;;;;20.40;89.00;;;;;;8364268;28;19982;-74
2023/04/04 14:51:57;;;;;;;;;;;20.10;87.10;;;;;;8359484;28;19933;-74
2023/04/04 14:55:58;;;;;;;;;;;20.00;80.50;;;;;;8359168;28;20015;-74
2023/04/04 15:00:00;;;;;;;;;;;19.80;76.40;;;;;;8361746;28;20322;-74
2023/04/04 15:04:02;;;;;;;;;;;19.90;78.00;;;;;;8374196;28;20400;-74
2023/04/04 15:08:04;;;;;;;;;;;20.00;84.50;;;;;;8361436;28;19946;-74
2023/04/04 15:12:06;;;;;;;;;;;19.90;77.10;;;;;;8353459;28;20436;-74
2023/04/04 15:16:07;;;;;;;;;;;19.70;79.80;;;;;;8369325;28;19950;-74
2023/04/04 15:20:09;;;;;;;;;;;19.40;76.40;;;;;;8364112;28;19956;-74
2023/04/04 15:24:11;;;;;;;;;;;19.20;81.60;;;;;;8377542;28;19924;-74
2023/04/04 15:28:12;;;;;;;;;;;19.00;72.90;;;;;;8363057;28;20498;-74
2023/04/04 15:32:14;;;;;;;;;;;18.80;74.00;;;;;;8359922;28;20024;-74
2023/04/04 15:36:16;;;;;;;;;;;18.40;74.40;;;;;;8360825;28;19933;-74
2023/04/04 15:40:18;;;;;;;;;;;18.20;72.70;;;;;;8362725;28;19931;-74
2023/04/04 15:44:19;;;;;;;;;;;18.20;74.00;;;;;;8351177;28;19935;-74
2023/04/04 15:48:21;;;;;;;;;;;18.30;75.70;;;;;;8372750;28;19929;-74
2023/04/04 15:52:23;;;;;;;;;;;18.40;73.50;;;;;;8373169;28;20387;-74
2023/04/04 15:56:24;;;;;;;;;;;18.50;75.80;;;;;;8366764;28;19959;-74
2023/04/04 16:00:27;;;;;;;;;;;18.50;70.90;;;;;;8365921;28;20027;-74
2023/04/04 16:04:29;;;;;;;;;;;18.50;76.40;;;;;;8366900;28;20367;-74
2023/04/04 16:08:31;;;;;;;;;;;18.40;74.30;;;;;;8371921;28;20275;-74
2023/04/04 16:12:32;;;;;;;;;;;18.20;75.50;;;;;;8385565;28;20023;-74
2023/04/04 16:16:35;;;;;;;;;;;18.00;72.40;;;;;;8366098;28;20027;-74
2023/04/04 16:20:36;;;;;;;;;;;17.80;67.10;;;;;;8367210;28;19931;-74
2023/04/04 16:24:39;;;;;;;;;;;17.60;69.60;;;;;;8369208;28;19940;-74
2023/04/04 16:28:40;;;;;;;;;;;17.50;68.10;;;;;;8361465;28;19939;-74
2023/04/04 16:32:45;;;;;;;;;;;17.40;69.00;;;;;;8382972;28;19925;-73
2023/04/04 16:36:47;;;;;;;;;;;17.10;70.50;;;;;;8374301;28;19931;-74
2023/04/04 16:40:48;;;;;;;;;;;16.90;70.20;;;;;;8368015;28;19955;-74
2023/04/04 16:44:50;;;;;;;;;;;16.70;69.10;;;;;;8368390;28;19932;-74
2023/04/04 16:48:52;;;;;;;;;;;16.50;67.00;;;;;;8368666;28;20044;-74
2023/04/04 16:52:53;;;;;;;;;;;16.20;66.10;;;;;;8368485;28;19973;-74
2023/04/04 16:56:55;;;;;;;;;;;15.90;65.60;;;;;;8384370;28;20331;-74
2023/04/04 17:00:57;;;;;;;;;;;15.60;66.70;;;;;;8360122;28;19932;-74
2023/04/04 17:04:58;;;;;;;;;;;15.40;66.00;;;;;;8365924;28;20023;-74
2023/04/04 17:09:00;;;;;;;;;;;15.30;66.70;;;;;;8375249;28;19948;-74
2023/04/04 17:13:02;;;;;;;;;;;15.40;67.50;;;;;;8364008;28;19925;-74
2023/04/04 17:17:04;;;;;;;;;;;15.40;66.70;;;;;;8363669;28;20326;-74
2023/04/04 17:21:06;;;;;;;;;;;15.30;65.90;;;;;;8367820;28;19950;-74
2023/04/04 17:25:07;;;;;;;;;;;15.10;65.70;;;;;;8366108;28;19940;-74
2023/04/04 17:29:09;;;;;;;;;;;14.70;65.00;;;;;;8353076;28;19924;-74
2023/04/04 17:33:11;;;;;;;;;;;14.40;64.70;;;;;;8362331;28;19964;-73
2023/04/04 17:37:13;;;;;;;;;;;14.10;64.70;;;;;;8364887;28;19925;-73
2023/04/04 17:41:15;;;;;;;;;;;13.90;64.80;;;;;;8367157;28;20433;-74
2023/04/04 17:45:17;;;;;;;;;;;13.70;64.90;;;;;;8365652;28;20465;-74
2023/04/04 17:49:19;;;;;;;;;;;13.50;64.90;;;;;;8349550;28;20031;-74
2023/04/04 17:53:21;;;;;;;;;;;13.70;65.90;;;;;;8358458;28;19924;-74
2023/04/04 17:57:22;;;;;;;;;;;14.00;65.70;;;;;;8365753;28;19955;-74
2023/04/04 18:01:26;;;;;;;;;;;13.90;65.00;;;;;;8368350;28;19931;-74
2023/04/04 18:05:28;;;;;;;;;;;13.70;64.90;;;;;;8365722;28;19929;-74
2023/04/04 18:09:30;;;;;;;;;;;13.40;64.70;;;;;;8363485;28;19932;-74
2023/04/04 18:13:31;;;;;;;;;;;13.00;64.50;;;;;;8367523;28;19933;-74
2023/04/04 18:17:33;;;;;;;;;;;12.70;65.00;;;;;;8358419;28;20369;-74
2023/04/04 18:21:35;;;;;;;;;;;12.40;64.00;;;;;;8363902;28;19931;-74
2023/04/04 18:25:36;;;;;;;;;;;12.20;64.40;;;;;;8364676;28;19925;-74
2023/04/04 18:29:40;;;;;;;;;;;12.00;64.70;;;;;;8362502;28;19928;-74
2023/04/04 18:33:41;;;;;;;;;;;11.80;64.70;;;;;;8344892;28;20300;-74
2023/04/04 18:37:43;;;;;;;;;;;11.70;64.00;;;;;;8362387;28;20259;-73
2023/04/04 18:41:45;;;;;;;;;;;11.50;64.60;;;;;;8366184;28;19924;-73
2023/04/04 18:45:47;;;;;;;;;;;11.40;64.50;;;;;;8365102;28;19928;-74
2023/04/04 18:49:48;;;;;;;;;;;11.30;63.70;;;;;;8352060;28;20753;-74
2023/04/04 18:53:50;;;;;;;;;;;11.20;64.80;;;;;;8342807;28;20024;-73
2023/04/04 18:57:51;;;;;;;;;;;11.00;66.10;;;;;;8359685;28;19962;-73
2023/04/04 19:01:55;;;;;;;;;;;10.80;65.50;;;;;;8364108;28;19932;-73
2023/04/04 19:05:57;;;;;;;;;;;10.70;64.10;;;;;;8361580;28;19939;-74
2023/04/04 19:10:02;;;;;;;;;;;10.60;67.10;;;;;;8373285;28;19932;-74
2023/04/04 19:14:03;;;;;;;;;;;10.40;65.60;;;;;;8360918;28;20355;-74
2023/04/04 19:18:05;;;;;;;;;;;10.30;65.40;;;;;;8361323;28;19935;-73
2023/04/04 19:22:07;;;;;;;;;;;10.20;65.00;;;;;;8373459;28;19925;-73
2023/04/04 19:26:09;;;;;;;;;;;10.10;64.70;;;;;;8360235;28;19932;-73
2023/04/04 19:30:32;;;;;;;;;;;10.10;65.40;;;;;;8361199;28;19924;-74
2023/04/04 19:34:34;;;;;;;;;;;10.00;65.90;;;;;;8359409;28;19945;-73
2023/04/04 19:38:37;;;;;;;;;;;9.90;65.10;;;;;;8378073;28;19950;-73
2023/04/04 19:42:40;;;;;;;;;;;9.90;66.60;;;;;;8363936;28;20280;-73
2023/04/04 19:46:41;;;;;;;;;;;9.80;67.40;;;;;;8342220;28;20288;-73
2023/04/04 20:16:53;;;;;;;;;;;9.40;65.80;;;;;;8360850;28;19954;-73
2023/04/04 20:20:56;;;;;;;;;;;9.40;67.70;;;;;;8378627;28;19941;-73
2023/04/04 20:24:58;;;;;;;;;;;9.40;67.40;;;;;;8362755;28;19940;-74
2023/04/04 20:29:00;;;;;;;;;;;9.30;68.50;;;;;;8358812;28;19964;-73
2023/04/04 20:33:06;;;;;;;;;;;9.30;68.80;;;;;;8367679;28;19928;-73
2023/04/04 20:37:21;;;;;;;;;;;9.10;69.30;;;;;;8367094;28;19924;-73
2023/04/04 20:41:23;;;;;;;;;;;9.10;69.20;;;;;;8359190;28;19928;-73
2023/04/04 20:45:24;;;;;;;;;;;8.90;67.80;;;;;;8369813;28;19925;-73
2023/04/04 20:49:26;;;;;;;;;;;8.80;69.40;;;;;;8368940;28;20318;-73
2023/04/04 20:53:28;;;;;;;;;;;8.70;67.30;;;;;;8366667;28;19947;-73
2023/04/04 20:57:30;;;;;;;;;;;8.50;66.10;;;;;;8346763;28;19956;-73
2023/04/04 21:01:31;;;;;;;;;;;8.40;68.50;;;;;;8356628;28;19939;-73
2023/04/04 21:05:34;;;;;;;;;;;8.30;68.50;;;;;;8381728;28;19947;-73
2023/04/04 21:09:36;;;;;;;;;;;8.30;70.20;;;;;;8382265;28;19928;-73
2023/04/04 21:13:39;;;;;;;;;;;8.20;70.00;;;;;;8379057;28;19936;-73
2023/04/04 21:17:43;;;;;;;;;;;8.20;68.20;;;;;;8396959;28;19924;-73
2023/04/04 21:21:47;;;;;;;;;;;8.10;69.30;;;;;;8393858;28;20379;-73
2023/04/04 21:25:49;;;;;;;;;;;8.00;71.00;;;;;;8387113;28;19932;-73
2023/04/04 21:29:51;;;;;;;;;;;8.00;68.80;;;;;;8391339;28;19931;-73
2023/04/04 21:33:53;;;;;;;;;;;7.90;68.50;;;;;;8377043;28;20295;-73
2023/04/04 21:37:55;;;;;;;;;;;7.90;70.20;;;;;;8381486;28;19925;-73
2023/04/04 21:42:01;;;;;;;;;;;7.80;68.50;;;;;;8371945;28;19924;-73
2023/04/04 21:46:04;;;;;;;;;;;7.70;69.70;;;;;;8381696;28;19939;-73
2023/04/04 21:50:07;;;;;;;;;;;7.70;70.40;;;;;;8381315;28;20194;-73
2023/04/04 21:54:09;;;;;;;;;;;7.60;69.00;;;;;;8372909;28;19931;-73
2023/04/04 21:58:11;;;;;;;;;;;7.40;72.50;;;;;;8391971;28;19925;-73
2023/04/04 22:02:13;;;;;;;;;;;7.30;71.40;;;;;;8376626;28;21015;-73
2023/04/04 22:06:15;;;;;;;;;;;7.20;73.00;;;;;;8373550;28;19925;-73
2023/04/04 22:10:21;;;;;;;;;;;7.00;72.70;;;;;;8398991;28;19996;-73
2023/04/04 22:14:23;;;;;;;;;;;6.90;72.90;;;;;;8386996;28;20055;-73
2023/04/04 22:18:34;;;;;;;;;;;6.80;72.60;;;;;;8374977;28;19983;-73
2023/04/04 22:22:36;;;;;;;;;;;6.60;73.20;;;;;;8367210;28;19932;-73
2023/04/04 22:26:40;;;;;;;;;;;6.40;70.20;;;;;;8383350;28;20000;-73
2023/04/04 22:30:43;;;;;;;;;;;6.40;69.90;;;;;;8369214;28;19925;-73
2023/04/04 22:34:44;;;;;;;;;;;6.30;71.50;;;;;;8387566;28;19924;-73
2023/04/04 22:38:46;;;;;;;;;;;6.20;73.00;;;;;;8378935;28;19924;-73
2023/04/04 22:42:48;;;;;;;;;;;6.00;67.60;;;;;;8385244;28;20287;-73
2023/04/04 22:46:50;;;;;;;;;;;5.90;69.50;;;;;;8378093;28;19968;-73
2023/04/04 22:50:57;;;;;;;;;;;5.90;71.20;;;;;;8390557;28;19961;-73
2023/04/04 22:54:59;;;;;;;;;;;5.80;72.40;;;;;;8387047;28;20437;-73
2023/04/04 22:59:00;;;;;;;;;;;5.70;72.00;;;;;;8396152;28;19935;-73
2023/04/04 23:03:04;;;;;;;;;;;5.60;72.00;;;;;;8396722;28;19924;-73
2023/04/04 23:07:06;;;;;;;;;;;5.50;73.50;;;;;;8360576;28;19978;-73
2023/04/04 23:11:08;;;;;;;;;;;5.40;71.60;;;;;;8384014;28;20296;-73
2023/04/04 23:15:12;;;;;;;;;;;5.30;73.60;;;;;;8385756;28;19928;-73
2023/04/04 23:19:13;;;;;;;;;;;5.10;72.40;;;;;;8378673;28;19932;-73
2023/04/04 23:23:15;;;;;;;;;;;5.10;71.40;;;;;;8369269;28;19925;-73
2023/04/04 23:27:17;;;;;;;;;;;5.00;72.60;;;;;;8402327;28;20030;-73
2023/04/04 23:31:19;;;;;;;;;;;4.90;73.00;;;;;;8383737;28;19928;-73
2023/04/04 23:35:21;;;;;;;;;;;4.80;71.40;;;;;;8398453;28;19966;-73
2023/04/04 23:39:22;;;;;;;;;;;4.70;72.40;;;;;;8384654;28;19931;-73
2023/04/04 23:43:25;;;;;;;;;;;4.60;70.60;;;;;;8370038;28;20023;-73
2023/04/04 23:47:26;;;;;;;;;;;4.50;71.30;;;;;;8390388;28;20288;-73
2023/04/04 23:51:37;;;;;;;;;;;4.40;69.30;;;;;;8385890;28;19924;-73
2023/04/04 23:55:39;;;;;;;;;;;4.30;68.30;;;;;;8371514;28;19948;-73
2023/04/04 23:59:40;;;;;;;;;;;4.30;70.50;;;;;;8370386;28;19924;-73
